Time;durP1;ratioP1;P1;durP2;ratioP2;P2;SDS_P1;SDS_P2;PMS_P1;PMS_P2;Temp;Humidity;BMP_temperature;BMP_pressure;BME280_temperature;BME280_humidity;BME280_pressure;Samples;Min_cycle;Max_cycle;Signal;HPM_P1;HPM_P2
2023/07/22 00:01:27;14935.00;0.05;26.50;0.00;0.00;0.62;;;;;21.60;1.00;;;;;;2280699;60;1435;-89
2023/07/22 00:03:54;0.00;0.00;0.62;0.00;0.00;0.62;;;;;21.50;1.00;;;;;;2280649;60;1022;-87
2023/07/22 00:06:21;0.00;0.00;0.62;0.00;0.00;0.62;;;;;21.40;1.00;;;;;;2280743;60;1019;-88
2023/07/22 00:08:48;77903.00;0.26;135.41;0.00;0.00;0.62;;;;;21.60;1.00;;;;;;2280618;60;1479;-88
2023/07/22 00:11:15;145675.00;0.49;252.35;0.00;0.00;0.62;;;;;21.20;1.00;;;;;;2280659;60;1386;-87
2023/07/22 00:13:43;201982.00;0.67;349.34;0.00;0.00;0.62;;;;;21.20;1.00;;;;;;2280720;60;2001;-89
2023/07/22 00:16:12;0.00;0.00;0.62;0.00;0.00;0.62;;;;;21.00;1.00;;;;;;2280697;60;1153;-88
2023/07/22 00:18:39;36050.00;0.12;63.05;0.00;0.00;0.62;;;;;20.90;1.00;;;;;;2280650;60;1724;-90
2023/07/22 00:21:08;332652.00;1.11;574.04;28048.00;0.09;49.20;;;;;21.10;1.00;;;;;;2280658;60;1105;-89
2023/07/22 00:23:35;0.00;0.00;0.62;0.00;0.00;0.62;;;;;21.00;1.00;;;;;;2280674;60;1353;-88
2023/07/22 00:26:03;96931.00;0.32;168.27;0.00;0.00;0.62;;;;;21.10;1.00;;;;;;2280676;60;1066;-88
2023/07/22 00:28:30;49166.00;0.16;85.74;0.00;0.00;0.62;;;;;21.00;1.00;;;;;;2280559;60;1683;-90
2023/07/22 00:30:57;121670.00;0.41;210.96;0.00;0.00;0.62;;;;;21.10;1.00;;;;;;2280448;60;1770;-89
2023/07/22 00:33:26;115794.00;0.39;200.83;0.00;0.00;0.62;;;;;21.10;1.00;;;;;;2280541;60;2006;-88
2023/07/22 00:35:53;92406.00;0.31;160.46;0.00;0.00;0.62;;;;;21.30;1.00;;;;;;2280597;60;1603;-89
2023/07/22 00:38:20;0.00;0.00;0.62;0.00;0.00;0.62;;;;;21.30;1.00;;;;;;2280470;60;920;-87
2023/07/22 00:40:47;322485.00;1.07;556.57;0.00;0.00;0.62;;;;;21.30;1.00;;;;;;2296052;40;3630;-88
2023/07/22 00:43:14;153597.00;0.51;266.01;0.00;0.00;0.62;;;;;21.30;1.00;;;;;;2280612;60;1390;-88
2023/07/22 00:45:41;0.00;0.00;0.62;0.00;0.00;0.62;;;;;21.70;1.00;;;;;;2280488;60;1619;-90
2023/07/22 00:48:10;34668.00;0.12;60.66;0.00;0.00;0.62;;;;;22.10;1.00;;;;;;2280558;60;1077;-87
2023/07/22 00:50:40;93390.00;0.31;162.16;0.00;0.00;0.62;;;;;22.20;1.00;;;;;;2280588;60;1051;-85
2023/07/22 00:53:07;150308.00;0.50;260.34;0.00;0.00;0.62;;;;;22.10;1.00;;;;;;2280364;60;1922;-89
2023/07/22 00:55:35;18207.00;0.06;32.17;0.00;0.00;0.62;;;;;22.10;1.00;;;;;;2280555;60;1121;-87
2023/07/22 00:58:02;0.00;0.00;0.62;0.00;0.00;0.62;;;;;22.30;1.00;;;;;;2280374;60;1034;-89
2023/07/22 01:00:29;137375.00;0.46;238.05;0.00;0.00;0.62;;;;;22.70;1.00;;;;;;2280346;60;1037;-88
2023/07/22 01:02:56;126547.00;0.42;219.37;0.00;0.00;0.62;;;;;22.40;1.00;;;;;;2280530;60;1268;-88
2023/07/22 01:05:24;1415.00;0.00;3.07;0.00;0.00;0.62;;;;;22.20;1.00;;;;;;2280450;60;1440;-88
2023/07/22 01:07:53;168448.00;0.56;291.59;0.00;0.00;0.62;;;;;22.10;1.00;;;;;;2280395;60;1137;-88
2023/07/22 01:10:21;226980.00;0.76;392.35;0.00;0.00;0.62;;;;;22.00;1.00;;;;;;2280430;60;1002;-87
2023/07/22 01:12:47;156656.00;0.52;271.28;0.00;0.00;0.62;;;;;22.20;1.00;;;;;;2280306;60;2010;-88
2023/07/22 01:15:15;28666.00;0.10;50.27;0.00;0.00;0.62;;;;;22.30;1.00;;;;;;2280433;60;1066;-87
2023/07/22 01:17:42;71725.00;0.24;124.74;0.00;0.00;0.62;;;;;21.70;1.00;;;;;;2280438;60;1144;-89
2023/07/22 01:20:10;56022.00;0.19;97.60;0.00;0.00;0.62;;;;;21.30;1.00;;;;;;2280459;60;1051;-88
2023/07/22 01:22:37;138931.00;0.46;240.73;0.00;0.00;0.62;;;;;21.60;1.00;;;;;;2280446;60;1371;-85
2023/07/22 01:25:08;4494.00;0.01;8.41;0.00;0.00;0.62;;;;;21.50;1.00;;;;;;2280372;60;1126;-88
2023/07/22 01:27:35;77868.00;0.26;135.35;0.00;0.00;0.62;;;;;21.40;1.00;;;;;;2280403;60;1748;-88
2023/07/22 01:30:03;128114.00;0.43;222.08;0.00;0.00;0.62;;;;;21.70;1.00;;;;;;2280358;60;945;-88
2023/07/22 01:32:30;166646.00;0.56;288.49;31243.00;0.10;54.73;;;;;21.30;1.00;;;;;;2279985;60;1314;-88
2023/07/22 01:34:57;138097.00;0.46;239.29;0.00;0.00;0.62;;;;;21.40;1.00;;;;;;2280411;60;1997;-90
2023/07/22 01:37:24;294361.00;0.98;508.23;47229.00;0.16;82.39;;;;;21.80;1.00;;;;;;2280392;60;1086;-86
2023/07/22 01:39:51;36478.00;0.12;63.79;0.00;0.00;0.62;;;;;21.80;1.00;;;;;;2280255;60;1777;-88
2023/07/22 01:42:20;128840.00;0.43;223.33;0.00;0.00;0.62;;;;;21.40;1.00;;;;;;2280002;60;1544;-91
2023/07/22 01:44:46;252394.00;0.84;436.07;30849.00;0.10;54.05;;;;;20.80;1.00;;;;;;2280246;60;1740;-88
2023/07/22 01:47:13;173387.00;0.58;300.10;0.00;0.00;0.62;;;;;20.50;1.00;;;;;;2280297;60;1021;-89
2023/07/22 01:49:40;507911.00;1.69;875.45;112751.00;0.38;195.58;;;;;20.70;1.00;;;;;;2280263;60;1060;-89
2023/07/22 01:52:08;166647.00;0.56;288.49;0.00;0.00;0.62;;;;;20.60;1.00;;;;;;2280215;60;1716;-89
2023/07/22 01:54:35;0.00;0.00;0.62;0.00;0.00;0.62;;;;;20.70;1.00;;;;;;2280191;60;1907;-87
2023/07/22 01:57:01;204127.00;0.68;353.03;7919.00;0.03;14.34;;;;;20.40;1.00;;;;;;2280350;60;1028;-88
2023/07/22 01:59:30;65906.00;0.22;114.69;0.00;0.00;0.62;;;;;20.60;1.00;;;;;;2280304;60;2367;-88
2023/07/22 02:01:57;93616.00;0.31;162.55;0.00;0.00;0.62;;;;;20.80;1.00;;;;;;2280164;60;1477;-87
2023/07/22 02:04:23;150398.00;0.50;260.49;0.00;0.00;0.62;;;;;20.90;1.00;;;;;;2280306;60;1034;-87
2023/07/22 02:06:50;152933.00;0.51;264.86;0.00;0.00;0.62;;;;;21.10;1.00;;;;;;2280287;60;1018;-87
2023/07/22 02:09:17;9578.00;0.03;17.22;0.00;0.00;0.62;;;;;21.40;1.00;;;;;;2280208;60;1762;-85
2023/07/22 02:11:44;128268.00;0.43;222.34;0.00;0.00;0.62;;;;;21.80;1.00;;;;;;2280154;60;1289;-88
2023/07/22 02:14:11;22031.00;0.07;38.79;0.00;0.00;0.62;;;;;21.80;1.00;;;;;;2280176;60;1990;-86
2023/07/22 02:16:39;156812.00;0.52;271.55;0.00;0.00;0.62;;;;;21.50;1.00;;;;;;2280055;60;1283;-89
2023/07/22 02:19:06;164022.00;0.55;283.97;0.00;0.00;0.62;;;;;21.30;1.00;;;;;;2280156;60;1727;-85
2023/07/22 02:21:33;13852.00;0.05;24.62;0.00;0.00;0.62;;;;;21.20;1.00;;;;;;2280206;60;1297;-88
2023/07/22 02:24:00;234997.00;0.78;406.15;0.00;0.00;0.62;;;;;21.20;1.00;;;;;;2280133;60;1596;-87
2023/07/22 02:26:27;148598.00;0.50;257.39;0.00;0.00;0.62;;;;;21.10;1.00;;;;;;2280262;60;1045;-87
2023/07/22 02:28:54;153214.00;0.51;265.35;0.00;0.00;0.62;;;;;20.90;1.00;;;;;;2280252;60;1007;-87
2023/07/22 02:31:22;87530.00;0.29;152.04;19822.00;0.07;34.96;;;;;21.20;1.00;;;;;;2280252;60;1299;-90
2023/07/22 02:33:51;242248.00;0.81;418.62;34888.00;0.12;61.04;;;;;21.40;1.00;;;;;;2280143;60;1915;-87
2023/07/22 02:36:17;142198.00;0.47;246.36;0.00;0.00;0.62;;;;;21.00;1.00;;;;;;2280135;60;1229;-89
2023/07/22 02:38:44;41122.00;0.14;71.83;0.00;0.00;0.62;;;;;20.70;1.00;;;;;;2280190;60;1098;-88
2023/07/22 02:41:11;19671.00;0.07;34.70;0.00;0.00;0.62;;;;;20.40;1.00;;;;;;2280101;60;2281;-87
2023/07/22 02:43:40;82951.00;0.28;144.13;0.00;0.00;0.62;;;;;20.80;1.00;;;;;;2280235;60;1027;-87
2023/07/22 02:46:08;91778.00;0.31;159.38;0.00;0.00;0.62;;;;;20.90;1.00;;;;;;2280213;60;1637;-89
2023/07/22 02:48:35;177570.00;0.59;307.30;0.00;0.00;0.62;;;;;20.90;1.00;;;;;;2280071;60;1058;-87
2023/07/22 02:51:08;453607.00;1.51;781.99;91350.00;0.30;158.64;;;;;20.90;1.00;;;;;;2280051;60;1054;-86
2023/07/22 02:53:36;167159.00;0.56;289.37;0.00;0.00;0.62;;;;;20.60;1.00;;;;;;2280021;60;2028;-88
2023/07/22 02:56:04;40296.00;0.13;70.40;0.00;0.00;0.62;;;;;20.30;1.00;;;;;;2280058;60;1477;-85
2023/07/22 02:58:31;129113.00;0.43;223.80;0.00;0.00;0.62;;;;;20.20;1.00;;;;;;2280108;60;1060;-85
2023/07/22 03:00:58;70492.00;0.23;122.61;0.00;0.00;0.62;;;;;20.20;1.00;;;;;;2280178;60;1098;-86
2023/07/22 03:03:25;29409.00;0.10;51.56;0.00;0.00;0.62;;;;;20.00;1.00;;;;;;2280364;60;1410;-85
2023/07/22 03:05:52;132253.00;0.44;229.21;0.00;0.00;0.62;;;;;19.90;1.00;;;;;;2280305;60;1649;-87
2023/07/22 03:08:21;190573.00;0.64;329.70;32755.00;0.11;57.35;;;;;19.60;1.00;;;;;;2280391;60;1082;-86
2023/07/22 03:10:48;211965.00;0.71;366.52;0.00;0.00;0.62;;;;;19.40;1.00;;;;;;2280335;60;1014;-89
2023/07/22 03:13:15;43344.00;0.14;75.67;0.00;0.00;0.62;;;;;19.30;1.00;;;;;;2280367;60;1416;-89
2023/07/22 03:15:42;134713.00;0.45;233.46;0.00;0.00;0.62;;;;;19.10;1.00;;;;;;2280330;60;1928;-85
2023/07/22 03:18:09;18607.00;0.06;32.86;0.00;0.00;0.62;;;;;19.00;1.00;;;;;;2280438;60;1048;-87
2023/07/22 03:20:37;20836.00;0.07;36.72;0.00;0.00;0.62;;;;;19.30;1.00;;;;;;2280266;60;1580;-86
2023/07/22 03:23:04;163361.00;0.54;282.83;2261.00;0.01;4.54;;;;;19.90;1.00;;;;;;2280296;60;1384;-88
2023/07/22 03:25:33;173490.00;0.58;300.28;0.00;0.00;0.62;;;;;20.30;1.00;;;;;;2280326;60;1587;-88
2023/07/22 03:28:04;171615.00;0.57;297.05;0.00;0.00;0.62;;;;;20.50;1.00;;;;;;2280335;60;1606;-86
2023/07/22 03:30:31;204468.00;0.68;353.61;47073.00;0.16;82.12;;;;;20.60;1.00;;;;;;2280324;60;981;-88
2023/07/22 03:32:58;316893.00;1.06;546.96;100879.00;0.34;175.09;;;;;20.70;1.00;;;;;;2280307;60;1726;-88
2023/07/22 03:35:25;20597.00;0.07;36.30;0.00;0.00;0.62;;;;;20.60;1.00;;;;;;2280218;60;2006;-87
2023/07/22 03:37:53;28567.00;0.10;50.10;0.00;0.00;0.62;;;;;20.50;1.00;;;;;;2280174;60;2470;-86
2023/07/22 03:40:20;426417.00;1.42;735.22;31362.00;0.10;54.94;;;;;20.60;1.00;;;;;;2280051;60;1642;-86
2023/07/22 03:42:50;252493.00;0.84;436.24;0.00;0.00;0.62;;;;;20.70;1.00;;;;;;2280226;60;1367;-88
2023/07/22 03:45:17;198772.00;0.66;343.81;40008.00;0.13;69.90;;;;;20.80;1.00;;;;;;2280346;60;1036;-86
2023/07/22 03:47:45;354272.00;1.18;611.20;53788.00;0.18;93.74;;;;;20.50;1.00;;;;;;2280282;60;992;-88
2023/07/22 03:50:15;233679.00;0.78;403.88;0.00;0.00;0.62;;;;;20.70;1.00;;;;;;2280248;60;971;-87
2023/07/22 03:52:42;174800.00;0.58;302.53;22327.00;0.07;39.30;;;;;20.90;1.00;;;;;;2280297;60;1397;-88
2023/07/22 03:55:10;165426.00;0.55;286.39;0.00;0.00;0.62;;;;;21.20;1.00;;;;;;2280240;60;1996;-87
2023/07/22 03:57:37;0.00;0.00;0.62;0.00;0.00;0.62;;;;;21.20;1.00;;;;;;2280271;60;1225;-89
2023/07/22 04:00:10;286147.00;0.95;494.11;40276.00;0.13;70.37;;;;;21.40;1.00;;;;;;2280360;60;928;-89
2023/07/22 04:02:37;75091.00;0.25;130.56;8657.00;0.03;15.62;;;;;21.20;1.00;;;;;;2280282;60;2295;-89
2023/07/22 04:05:04;232240.00;0.77;401.40;0.00;0.00;0.62;;;;;21.00;1.00;;;;;;2280263;60;1691;-87
2023/07/22 04:07:31;0.00;0.00;0.62;0.00;0.00;0.62;;;;;21.10;1.00;;;;;;2280172;60;928;-87
2023/07/22 04:09:59;156688.00;0.52;271.33;0.00;0.00;0.62;;;;;21.10;1.00;;;;;;2280240;60;1561;-88
2023/07/22 04:12:25;0.00;0.00;0.62;0.00;0.00;0.62;;;;;21.20;1.00;;;;;;2280174;60;1358;-85
2023/07/22 04:14:52;57995.00;0.19;101.01;0.00;0.00;0.62;;;;;21.10;1.00;;;;;;2280124;60;1994;-87
2023/07/22 04:17:21;137392.00;0.46;238.07;0.00;0.00;0.62;;;;;20.70;1.00;;;;;;2280213;60;1114;-87
2023/07/22 04:19:48;102421.00;0.34;177.75;0.00;0.00;0.62;;;;;20.20;1.00;;;;;;2280288;60;1015;-86
2023/07/22 04:22:15;146599.00;0.49;253.95;0.00;0.00;0.62;;;;;19.90;1.00;;;;;;2280110;60;1372;-86
2023/07/22 04:24:41;0.00;0.00;0.62;0.00;0.00;0.62;;;;;19.50;1.00;;;;;;2280229;60;1026;-85
2023/07/22 04:27:08;174960.00;0.58;302.81;0.00;0.00;0.62;;;;;19.90;1.00;;;;;;2280239;60;1049;-88
2023/07/22 04:29:36;16001.00;0.05;28.34;0.00;0.00;0.62;;;;;20.00;1.00;;;;;;2280239;60;948;-86
2023/07/22 04:32:03;370198.00;1.23;638.58;38463.00;0.13;67.23;;;;;19.80;1.00;;;;;;2280209;60;1292;-86
2023/07/22 04:34:33;389135.00;1.30;671.13;39258.00;0.13;68.60;;;;;19.70;1.00;;;;;;2280217;60;2004;-88
2023/07/22 04:37:00;161944.00;0.54;280.39;0.00;0.00;0.62;;;;;19.80;1.00;;;;;;2280763;60;1086;-89
2023/07/22 04:39:27;0.00;0.00;0.62;0.00;0.00;0.62;;;;;19.80;1.00;;;;;;2280784;60;1461;-89
2023/07/22 04:41:54;87865.00;0.29;152.62;0.00;0.00;0.62;;;;;19.60;1.00;;;;;;2280879;60;1361;-85
2023/07/22 04:44:22;64544.00;0.22;112.33;0.00;0.00;0.62;;;;;19.00;1.00;;;;;;2280916;60;1074;-87
2023/07/22 04:46:48;146424.00;0.49;253.64;0.00;0.00;0.62;;;;;18.70;1.00;;;;;;2280785;60;1481;-86
2023/07/22 04:49:17;159141.00;0.53;275.56;0.00;0.00;0.62;;;;;18.40;1.00;;;;;;2280855;60;1168;-87
2023/07/22 04:51:46;19989.00;0.07;35.25;0.00;0.00;0.62;;;;;18.50;1.00;;;;;;2280771;60;1612;-86
2023/07/22 04:54:14;256825.00;0.86;443.69;23558.00;0.08;41.43;;;;;18.90;1.00;;;;;;2280815;60;2002;-88
2023/07/22 04:56:41;364419.00;1.21;628.64;53808.00;0.18;93.77;;;;;19.20;1.00;;;;;;2280750;60;1151;-86
2023/07/22 04:59:08;220829.00;0.74;381.77;0.00;0.00;0.62;;;;;19.20;1.00;;;;;;2280814;60;1073;-86
2023/07/22 05:01:35;215788.00;0.72;373.10;0.00;0.00;0.62;;;;;19.40;1.00;;;;;;2280793;60;1363;-86
2023/07/22 05:04:04;147211.00;0.49;255.00;0.00;0.00;0.62;;;;;19.20;1.00;;;;;;2280722;60;1005;-88
2023/07/22 05:06:31;64174.00;0.21;111.69;0.00;0.00;0.62;;;;;18.90;1.00;;;;;;2280803;60;982;-87
2023/07/22 05:08:59;117151.00;0.39;203.17;0.00;0.00;0.62;;;;;19.00;1.00;;;;;;2280760;60;1038;-85
2023/07/22 05:11:26;57243.00;0.19;99.71;0.00;0.00;0.62;;;;;19.20;1.00;;;;;;2280689;60;1285;-87
2023/07/22 05:13:54;90628.00;0.30;157.39;0.00;0.00;0.62;;;;;19.60;1.00;;;;;;2280798;60;1168;-88
2023/07/22 05:16:21;35034.00;0.12;61.30;0.00;0.00;0.62;;;;;19.90;1.00;;;;;;2280531;60;2025;-87
2023/07/22 05:18:48;30123.00;0.10;52.80;0.00;0.00;0.62;;;;;20.10;1.00;;;;;;2280695;60;1086;-87
2023/07/22 05:21:15;89022.00;0.30;154.62;0.00;0.00;0.62;;;;;19.90;1.00;;;;;;2280641;60;1271;-86
2023/07/22 05:23:42;184707.00;0.62;319.60;29025.00;0.10;50.90;;;;;19.90;1.00;;;;;;2280739;60;1089;-87
2023/07/22 05:26:10;257337.00;0.86;444.57;21912.00;0.07;38.58;;;;;20.00;1.00;;;;;;2280702;60;1105;-87
2023/07/22 05:28:37;197412.00;0.66;341.47;0.00;0.00;0.62;;;;;20.30;1.00;;;;;;2280752;60;1025;-86
2023/07/22 05:31:04;428140.00;1.43;738.19;22083.00;0.07;38.88;;;;;19.90;1.00;;;;;;2280715;60;1090;-88
2023/07/22 05:33:30;649006.00;2.16;1118.92;46690.00;0.16;81.46;;;;;20.10;1.00;;;;;;2280630;60;1485;-87
2023/07/22 05:35:58;642182.00;2.14;1107.11;0.00;0.00;0.62;;;;;20.10;1.00;;;;;;2280652;60;1917;-86
2023/07/22 05:38:24;564524.00;1.88;973.00;29396.00;0.10;51.54;;;;;20.40;1.00;;;;;;2280678;60;1141;-87
2023/07/22 05:40:52;567361.00;1.89;977.90;26579.00;0.09;46.66;;;;;20.80;1.00;;;;;;2280651;60;1152;-87
2023/07/22 05:43:21;875649.00;2.92;1513.39;26580.00;0.09;46.66;;;;;21.00;1.00;;;;;;2280642;60;1380;-87
2023/07/22 05:45:48;801216.00;2.67;1383.24;53975.00;0.18;94.06;;;;;21.10;1.00;;;;;;2280667;60;1088;-87
2023/07/22 05:48:14;586510.00;1.96;1010.93;0.00;0.00;0.62;;;;;22.30;1.00;;;;;;2280584;60;1007;-86
2023/07/22 05:50:41;377639.00;1.26;651.37;28278.00;0.09;49.60;;;;;24.10;1.00;;;;;;2280702;60;932;-88
2023/07/22 05:53:08;493067.00;1.64;849.89;18192.00;0.06;32.14;;;;;25.70;1.00;;;;;;2280581;60;1418;-87
2023/07/22 05:55:35;459336.00;1.53;791.84;36994.00;0.12;64.69;;;;;26.70;1.00;;;;;;2280442;60;1915;-87
2023/07/22 05:58:05;372135.00;1.24;641.91;0.00;0.00;0.62;;;;;27.60;1.00;;;;;;2280647;60;1053;-86
2023/07/22 06:00:33;640023.00;2.13;1103.38;36999.00;0.12;64.70;;;;;28.60;1.00;;;;;;2280372;60;1608;-87
2023/07/22 06:03:00;485730.00;1.62;837.26;13320.00;0.04;23.70;;;;;28.80;1.00;;;;;;2280513;60;1321;-87
2023/07/22 06:05:27;331075.00;1.10;571.33;53032.00;0.18;92.43;;;;;29.00;1.00;;;;;;2280349;60;1178;-87
2023/07/22 06:07:57;396660.00;1.32;684.06;27389.00;0.09;48.06;;;;;29.90;1.00;;;;;;2280376;60;1544;-88
2023/07/22 06:10:23;415976.00;1.39;717.27;0.00;0.00;0.62;;;;;30.80;1.00;;;;;;2280257;60;1207;-87
2023/07/22 06:12:50;487342.00;1.62;840.03;0.00;0.00;0.62;;;;;30.30;1.00;;;;;;2280332;60;1303;-88
2023/07/22 06:15:17;494330.00;1.65;852.06;66805.00;0.22;116.24;;;;;30.60;1.00;;;;;;2280374;60;1918;-89
2023/07/22 06:17:45;790468.00;2.63;1364.50;125774.00;0.42;218.04;;;;;30.60;1.00;;;;;;2280347;60;1557;-88
2023/07/22 06:20:12;855327.00;2.85;1477.79;14461.00;0.05;25.68;;;;;31.40;1.00;;;;;;2280285;60;1144;-87
2023/07/22 06:22:39;481217.00;1.60;829.49;24980.00;0.08;43.89;;;;;31.70;1.00;;;;;;2280266;60;1378;-88
2023/07/22 06:25:07;546025.00;1.82;941.11;26450.00;0.09;46.44;;;;;31.80;1.00;;;;;;2280262;60;897;-89
2023/07/22 06:27:35;488757.00;1.63;842.47;40140.00;0.13;70.13;;;;;31.90;1.00;;;;;;2280215;60;992;-87
2023/07/22 06:30:02;515408.00;1.72;888.36;31567.00;0.11;55.30;;;;;32.30;1.00;;;;;;2280212;60;1106;-85
2023/07/22 06:34:59;2641577.00;8.81;5035.69;82239.00;0.27;142.90;;;;;32.10;1.00;;;;;;2281730;60;1905;-88
2023/07/22 06:37:26;1514234.00;5.05;2669.93;102175.00;0.34;177.33;;;;;31.80;1.00;;;;;;2280039;60;1044;-89
2023/07/22 06:39:54;874460.00;2.91;1511.31;0.00;0.00;0.62;;;;;31.70;1.00;;;;;;2280270;60;1016;-88
2023/07/22 06:42:21;621617.00;2.07;1071.56;0.00;0.00;0.62;;;;;32.10;1.00;;;;;;2280175;60;1269;-89
2023/07/22 06:44:48;438787.00;1.46;756.50;0.00;0.00;0.62;;;;;31.90;1.00;;;;;;2280273;60;1158;-88
2023/07/22 06:47:15;916952.00;3.06;1585.91;9575.00;0.03;17.21;;;;;32.30;1.00;;;;;;2280147;60;1068;-88
2023/07/22 06:49:42;960334.00;3.20;1662.34;114131.00;0.38;197.96;;;;;32.00;1.00;;;;;;2280268;60;2078;-89
2023/07/22 06:52:11;1264440.00;4.21;2207.17;118416.00;0.39;205.35;;;;;31.90;1.00;;;;;;2280140;60;1398;-87
2023/07/22 06:54:37;920253.00;3.07;1591.72;202174.00;0.67;349.67;;;;;31.70;1.00;;;;;;2280097;60;2014;-89
2023/07/22 06:57:05;843664.00;2.81;1457.38;91222.00;0.30;158.42;;;;;31.90;1.00;;;;;;2280063;60;1741;-88
2023/07/22 06:59:32;984339.00;3.28;1704.75;137691.00;0.46;238.59;;;;;32.10;1.00;;;;;;2279893;60;1569;-88
2023/07/22 07:01:59;539990.00;1.80;930.71;57727.00;0.19;100.55;;;;;32.10;1.00;;;;;;2280206;60;1365;-88
2023/07/22 07:04:27;927820.00;3.09;1605.03;89837.00;0.30;156.03;;;;;32.00;1.00;;;;;;2280097;60;1490;-86
2023/07/22 07:06:55;877300.00;2.92;1516.29;111215.00;0.37;192.93;;;;;32.40;1.00;;;;;;2280190;60;1023;-88
2023/07/22 07:09:23;442916.00;1.48;763.60;59558.00;0.20;103.71;;;;;32.40;1.00;;;;;;2280088;60;1757;-87
2023/07/22 07:11:50;430734.00;1.44;742.65;56733.00;0.19;98.83;;;;;32.20;1.00;;;;;;2280086;60;1786;-89
2023/07/22 07:14:17;284594.00;0.95;491.44;62384.00;0.21;108.60;;;;;31.90;1.00;;;;;;2280056;60;1042;-88
2023/07/22 07:16:44;218157.00;0.73;377.17;65457.00;0.22;113.91;;;;;32.70;1.00;;;;;;2280157;60;2015;-87
2023/07/22 07:19:11;289888.00;0.97;500.54;56891.00;0.19;99.10;;;;;33.20;1.00;;;;;;2279979;60;1108;-89
2023/07/22 07:21:38;352219.00;1.17;607.68;59398.00;0.20;103.44;;;;;33.60;1.00;;;;;;2280045;60;1545;-89
2023/07/22 07:24:06;232279.00;0.77;401.47;61212.00;0.20;106.57;;;;;34.10;1.00;;;;;;2280193;60;1007;-89
2023/07/22 07:26:34;474623.00;1.58;818.14;59291.00;0.20;103.25;;;;;34.30;1.00;;;;;;2280063;60;1756;-89
2023/07/22 07:29:01;307295.00;1.02;530.46;65868.00;0.22;114.62;;;;;34.20;1.00;;;;;;2280020;60;1698;-88
2023/07/22 07:31:28;375975.00;1.25;648.51;62533.00;0.21;108.86;;;;;34.10;1.00;;;;;;2279801;60;1649;-85
2023/07/22 07:33:55;460638.00;1.54;794.08;57187.00;0.19;99.61;;;;;34.70;1.00;;;;;;2279977;60;1695;-90
2023/07/22 07:36:22;182428.00;0.61;315.67;57729.00;0.19;100.55;;;;;35.00;1.00;;;;;;2279901;60;1993;-88
2023/07/22 07:38:49;239803.00;0.80;414.41;0.00;0.00;0.62;;;;;35.10;1.00;;;;;;2335851;55;3794;-88
2023/07/22 07:41:16;410917.00;1.37;708.57;10387.00;0.03;18.62;;;;;34.90;1.00;;;;;;2280038;60;1418;-87
2023/07/22 07:43:45;133042.00;0.44;230.57;0.00;0.00;0.62;;;;;34.20;1.00;;;;;;2280156;60;965;-89
2023/07/22 07:46:18;165998.00;0.55;287.37;0.00;0.00;0.62;;;;;34.30;1.00;;;;;;2280063;60;1506;-87
2023/07/22 07:48:46;150702.00;0.50;261.02;0.00;0.00;0.62;;;;;34.50;1.00;;;;;;2279948;60;1077;-89
2023/07/22 07:51:14;143516.00;0.48;248.63;0.00;0.00;0.62;;;;;33.60;1.00;;;;;;2279987;60;1591;-88
2023/07/22 07:53:42;137706.00;0.46;238.62;0.00;0.00;0.62;;;;;33.50;1.00;;;;;;2280081;60;1280;-86
2023/07/22 07:56:09;207352.00;0.69;358.58;0.00;0.00;0.62;;;;;33.60;1.00;;;;;;2280135;60;1992;-87
2023/07/22 07:58:37;167032.00;0.56;289.15;0.00;0.00;0.62;;;;;33.90;1.00;;;;;;2280015;60;938;-87
2023/07/22 08:01:06;252589.00;0.84;436.40;60495.00;0.20;105.33;;;;;34.50;1.00;;;;;;2280028;60;1547;-89
2023/07/22 08:03:35;272429.00;0.91;470.52;73708.00;0.25;128.17;;;;;34.30;1.00;;;;;;2279883;60;1705;-89
2023/07/22 08:06:02;163117.00;0.54;282.41;0.00;0.00;0.62;;;;;33.80;1.00;;;;;;2280073;60;898;-87
2023/07/22 08:08:29;294550.00;0.98;508.55;0.00;0.00;0.62;;;;;33.70;1.00;;;;;;2307148;40;3608;-86
2023/07/22 08:11:00;128841.00;0.43;223.33;0.00;0.00;0.62;;;;;33.60;1.00;;;;;;2276499;60;1555;-87
2023/07/22 08:13:29;242176.00;0.81;418.49;0.00;0.00;0.62;;;;;34.10;1.00;;;;;;2276639;60;1404;-87
2023/07/22 08:15:56;14373.00;0.05;25.52;0.00;0.00;0.62;;;;;34.80;1.00;;;;;;2276615;60;1911;-87
2023/07/22 08:18:25;215270.00;0.72;372.20;0.00;0.00;0.62;;;;;34.80;1.00;;;;;;2276651;60;1624;-88
2023/07/22 08:20:53;107538.00;0.36;186.58;0.00;0.00;0.62;;;;;34.90;1.00;;;;;;2276725;60;1648;-87
2023/07/22 08:23:20;228985.00;0.76;395.80;0.00;0.00;0.62;;;;;35.80;1.00;;;;;;2276660;60;1604;-88
2023/07/22 08:25:47;4870.00;0.02;9.06;0.00;0.00;0.62;;;;;35.90;1.00;;;;;;2276723;60;1160;-90
2023/07/22 08:28:15;38646.00;0.13;67.55;0.00;0.00;0.62;;;;;35.30;1.00;;;;;;2276527;60;1740;-88
2023/07/22 08:30:42;0.00;0.00;0.62;0.00;0.00;0.62;;;;;35.80;1.00;;;;;;2276672;60;916;-89
2023/07/22 08:33:10;101315.00;0.34;175.84;0.00;0.00;0.62;;;;;35.60;1.00;;;;;;2276735;60;1385;-88
2023/07/22 08:35:39;154153.00;0.51;266.96;0.00;0.00;0.62;;;;;35.80;1.00;;;;;;2276720;60;2006;-88
2023/07/22 08:38:06;221335.00;0.74;382.64;0.00;0.00;0.62;;;;;35.70;1.00;;;;;;2276710;60;1603;-90
2023/07/22 08:40:36;116375.00;0.39;201.83;0.00;0.00;0.62;;;;;35.40;1.00;;;;;;2276588;60;1119;-90
2023/07/22 08:43:05;146628.00;0.49;254.00;62875.00;0.21;109.45;;;;;35.30;1.00;;;;;;2276526;60;1377;-89
2023/07/22 08:45:36;767326.00;2.56;1324.20;71791.00;0.24;124.86;;;;;35.30;1.00;;;;;;2276548;60;1441;-90
2023/07/22 08:48:07;1111085.00;3.70;1930.26;23685.00;0.08;41.65;;;;;35.00;1.00;;;;;;2276412;60;911;-89
2023/07/22 08:50:38;1292483.00;4.31;2258.35;63598.00;0.21;110.70;;;;;34.70;1.00;;;;;;2276674;60;1150;-89
2023/07/22 08:53:07;921267.00;3.07;1593.50;89208.00;0.30;154.94;;;;;34.50;1.00;;;;;;2276667;60;1655;-88
2023/07/22 08:55:35;466864.00;1.56;804.79;49516.00;0.17;86.35;;;;;34.50;1.00;;;;;;2276483;60;2012;-88
2023/07/22 09:00:32;1211452.00;4.04;2110.94;59386.00;0.20;103.42;;;;;33.80;1.00;;;;;;2281840;60;1341;-88
2023/07/22 09:03:00;32232.00;0.11;56.45;0.00;0.00;0.62;;;;;33.70;1.00;;;;;;2280531;60;1371;-87
2023/07/22 09:05:28;32156.00;0.11;56.31;0.00;0.00;0.62;;;;;34.00;1.00;;;;;;2280414;60;1020;-88
2023/07/22 09:07:55;169547.00;0.57;293.49;0.00;0.00;0.62;;;;;34.10;1.00;;;;;;2280524;60;1034;-88
2023/07/22 09:12:57;1176088.00;3.92;2047.05;0.00;0.00;0.62;;;;;33.80;1.00;;;;;;2282471;60;1410;-87
2023/07/22 09:15:25;157073.00;0.52;272.00;0.00;0.00;0.62;;;;;34.10;1.00;;;;;;2280429;60;1989;-88
2023/07/22 09:17:52;216198.00;0.72;373.80;0.00;0.00;0.62;;;;;33.80;1.00;;;;;;2280328;60;1325;-87
2023/07/22 09:20:20;439170.00;1.46;757.16;22621.00;0.08;39.81;;;;;33.50;1.00;;;;;;2280411;60;1642;-88
2023/07/22 09:25:16;726088.00;2.42;1252.51;0.00;0.00;0.62;;;;;32.60;1.00;;;;;;2282025;60;1436;-89
2023/07/22 09:27:44;54650.00;0.18;95.23;0.00;0.00;0.62;;;;;32.00;1.00;;;;;;2280729;60;1083;-89
2023/07/22 09:30:27;160785.00;0.54;278.39;0.00;0.00;0.62;;;;;31.90;1.00;;;;;;2283414;39;3643;-88
2023/07/22 09:35:22;859600.00;2.87;1485.27;177794.00;0.59;307.69;;;;;30.80;1.00;;;;;;2282489;60;1897;-87
2023/07/22 09:42:48;2162836.00;7.21;3964.22;53217.00;0.18;92.75;;;;;29.40;1.00;;;;;;2278232;61;1382;-89
2023/07/22 09:45:15;870021.00;2.90;1503.53;167614.00;0.56;290.16;;;;;30.20;1.00;;;;;;2313436;40;3825;-90
2023/07/22 09:47:45;117715312.00;392.38;66073992.00;57894.00;0.19;100.84;;;;;30.10;1.00;;;;;;2282434;55;3785;-87
2023/07/22 09:50:15;475873.00;1.59;820.30;58937.00;0.20;102.64;;;;;30.40;1.00;;;;;;2280667;60;1336;-86
2023/07/22 09:52:46;120370288.00;401.23;70650592.00;60412.00;0.20;105.19;;;;;30.90;1.00;;;;;;2280495;60;1553;-89
2023/07/22 09:57:46;1091177.00;3.64;1894.65;62667.00;0.21;109.09;;;;;31.30;1.00;;;;;;2282097;60;1977;-88
2023/07/22 10:00:19;495437.00;1.65;853.97;103622.00;0.35;179.82;;;;;31.40;1.00;;;;;;2280586;60;1450;-87
2023/07/22 10:07:46;1127795.00;3.76;1960.20;0.00;0.00;0.62;;;;;31.00;1.00;;;;;;2281961;60;1395;-89
2023/07/22 10:15:13;1371593.00;4.57;2403.74;0.00;0.00;0.62;;;;;31.70;1.00;;;;;;2343832;39;3669;-88
2023/07/22 10:17:41;923691.00;3.08;1597.77;44776.00;0.15;78.15;;;;;30.60;1.00;;;;;;2289430;56;3765;-89
2023/07/22 10:42:38;1358239.00;4.53;2379.09;56880.00;0.19;99.08;;;;;30.10;1.00;;;;;;2287552;40;3507;-88
2023/07/22 10:45:25;479863.00;1.60;827.16;47720.00;0.16;83.24;;;;;30.00;1.00;;;;;;2280428;60;1708;-89